createdAt,value
2017-06-19T00:00:42.223Z,17.2
2017-06-19T00:01:49.711Z,17.2
2017-06-19T00:02:56.873Z,17.2
2017-06-19T00:04:04.666Z,17.1
2017-06-19T00:05:12.159Z,17.1
2017-06-19T00:06:19.659Z,17.1
2017-06-19T00:07:27.150Z,17
2017-06-19T00:08:34.635Z,17
2017-06-19T00:09:42.426Z,17
2017-06-19T00:10:49.913Z,17
2017-06-19T00:11:57.391Z,17
2017-06-19T00:13:04.876Z,16.9
2017-06-19T00:14:12.366Z,16.9
2017-06-19T00:15:20.201Z,16.8
2017-06-19T00:16:27.692Z,16.7
2017-06-19T00:17:35.184Z,16.6
2017-06-19T00:18:42.682Z,16.5
2017-06-19T00:19:50.176Z,16.5
2017-06-19T00:20:58.026Z,16.4
2017-06-19T00:22:05.501Z,16.3
2017-06-19T00:23:12.990Z,16.3
2017-06-19T00:24:20.479Z,16.2
2017-06-19T00:25:28.191Z,16.2
2017-06-19T00:26:35.986Z,16.1
2017-06-19T00:27:43.474Z,16.1
2017-06-19T00:28:50.965Z,16
2017-06-19T00:29:58.484Z,16
2017-06-19T00:31:05.959Z,16
2017-06-19T00:32:13.750Z,15.9
2017-06-19T00:33:21.235Z,15.9
2017-06-19T00:34:28.724Z,15.8
2017-06-19T00:35:36.215Z,15.7
2017-06-19T00:36:43.709Z,15.7
2017-06-19T00:37:51.504Z,15.6
2017-06-19T00:38:58.988Z,15.6
2017-06-19T00:40:06.497Z,15.5
2017-06-19T00:41:13.657Z,15.5
2017-06-19T00:42:20.500Z,15.4
2017-06-19T00:43:28.346Z,15.3
2017-06-19T00:44:35.838Z,15.3
2017-06-19T00:45:43.330Z,15.3
2017-06-19T00:46:50.485Z,15.2
2017-06-19T00:47:57.974Z,15.2
2017-06-19T00:49:05.763Z,15.1
2017-06-19T00:50:13.254Z,15.1
2017-06-19T00:51:20.743Z,15.1
2017-06-19T00:52:28.241Z,15.1
2017-06-19T00:53:35.733Z,15
2017-06-19T00:54:43.194Z,15
2017-06-19T00:55:50.690Z,15
2017-06-19T00:56:58.177Z,14.9
2017-06-19T00:58:05.671Z,14.9
2017-06-19T00:59:13.170Z,14.8
2017-06-19T01:00:20.684Z,14.8
2017-06-19T01:01:27.844Z,14.8
2017-06-19T01:02:35.329Z,14.8
2017-06-19T01:03:42.817Z,14.8
2017-06-19T01:04:50.303Z,14.7
2017-06-19T01:05:58.142Z,14.7
2017-06-19T01:07:05.298Z,14.7
2017-06-19T01:08:12.792Z,14.7
2017-06-19T01:09:20.281Z,14.6
2017-06-19T01:10:27.786Z,14.6
2017-06-19T01:11:35.625Z,14.6
2017-06-19T01:12:43.114Z,14.6
2017-06-19T01:13:50.604Z,14.5
2017-06-19T01:14:57.760Z,14.5
2017-06-19T01:16:05.247Z,14.5
2017-06-19T01:17:13.085Z,14.4
2017-06-19T01:18:20.575Z,14.4
2017-06-19T01:19:28.064Z,14.4
2017-06-19T01:20:35.549Z,14.4
2017-06-19T01:21:43.040Z,14.4
2017-06-19T01:22:50.879Z,14.4
2017-06-19T01:23:58.367Z,14.3
2017-06-19T01:25:05.855Z,14.3
2017-06-19T01:26:13.342Z,14.2
2017-06-19T01:27:20.838Z,14.2
2017-06-19T01:28:28.625Z,14.2
2017-06-19T01:29:36.116Z,14.2
2017-06-19T01:30:43.605Z,14.1
2017-06-19T01:31:51.088Z,14.1
2017-06-19T01:32:58.571Z,14
2017-06-19T01:34:06.067Z,14
2017-06-19T01:35:13.223Z,14
2017-06-19T01:36:20.705Z,13.9
2017-06-19T01:37:28.198Z,13.9
2017-06-19T01:38:35.684Z,13.8
2017-06-19T01:39:43.524Z,13.8
2017-06-19T01:40:51.012Z,13.8
2017-06-19T01:41:58.492Z,13.8
2017-06-19T01:43:05.975Z,13.8
2017-06-19T01:44:13.475Z,13.8
2017-06-19T01:45:20.652Z,13.8
2017-06-19T01:46:27.817Z,13.7
2017-06-19T01:47:34.988Z,13.7
2017-06-19T01:48:42.476Z,13.6
2017-06-19T01:49:49.958Z,13.6
2017-06-19T01:50:57.747Z,13.5
2017-06-19T01:52:04.906Z,13.5
2017-06-19T01:53:12.402Z,13.5
2017-06-19T01:54:19.887Z,13.5
2017-06-19T01:55:27.372Z,13.5
2017-06-19T01:56:35.158Z,13.5
2017-06-19T01:57:42.648Z,13.5
2017-06-19T01:58:50.136Z,13.5
2017-06-19T01:59:57.625Z,13.5
2017-06-19T02:01:05.114Z,13.4
2017-06-19T02:02:12.951Z,13.4
2017-06-19T02:03:20.444Z,13.4
2017-06-19T02:04:27.920Z,13.4
2017-06-19T02:05:35.406Z,13.3
2017-06-19T02:06:42.890Z,13.3
2017-06-19T02:07:50.734Z,13.3
2017-06-19T02:08:58.220Z,13.3
2017-06-19T02:10:05.708Z,13.2
2017-06-19T02:11:13.187Z,13.2
2017-06-19T02:12:20.355Z,13.2
2017-06-19T02:13:28.200Z,13.3
2017-06-19T02:14:35.695Z,13.3
2017-06-19T02:15:43.179Z,13.3
2017-06-19T02:16:50.670Z,13.3
2017-06-19T02:17:58.162Z,13.2
2017-06-19T02:19:05.943Z,13.2
2017-06-19T02:20:13.426Z,13.1
2017-06-19T02:21:20.920Z,13.1
2017-06-19T02:22:28.406Z,13.1
2017-06-19T02:23:35.897Z,13.1
2017-06-19T02:24:43.071Z,13.1
2017-06-19T02:25:50.552Z,13.1
2017-06-19T02:26:58.045Z,13.1
2017-06-19T02:28:05.532Z,13.1
2017-06-19T02:29:13.014Z,13.1
2017-06-19T02:30:20.795Z,13.1
2017-06-19T02:31:28.281Z,13.1
2017-06-19T02:32:34.777Z,13.1
2017-06-19T02:33:42.260Z,13.1
2017-06-19T02:34:49.414Z,13.1
2017-06-19T02:35:56.874Z,13.1
2017-06-19T02:37:04.368Z,13.1
2017-06-19T02:38:11.856Z,13.1
2017-06-19T02:39:19.345Z,13.1
2017-06-19T02:40:26.496Z,13.1
2017-06-19T02:41:34.335Z,13
2017-06-19T02:42:41.490Z,13
2017-06-19T02:43:48.972Z,13.1
2017-06-19T02:44:56.455Z,13.1
2017-06-19T02:46:03.942Z,13.1
2017-06-19T02:47:11.724Z,13.1
2017-06-19T02:48:19.250Z,13.1
2017-06-19T02:49:26.733Z,13.1
2017-06-19T02:50:34.217Z,13.1
2017-06-19T02:51:41.702Z,13.1
2017-06-19T02:52:49.538Z,13.1
2017-06-19T02:53:57.016Z,13.1
2017-06-19T02:55:04.498Z,13.1
2017-06-19T02:56:11.979Z,13.1
2017-06-19T02:57:19.465Z,13.1
2017-06-19T02:58:27.319Z,13.1
2017-06-19T02:59:34.796Z,13.1
2017-06-19T03:00:42.278Z,13.1
2017-06-19T03:01:49.764Z,13.1
2017-06-19T03:02:57.275Z,13.1
2017-06-19T03:04:05.112Z,13.1
2017-06-19T03:05:12.279Z,13.1
2017-06-19T03:06:19.762Z,13.1
2017-06-19T03:07:27.243Z,13.1
2017-06-19T03:08:34.749Z,13.1
2017-06-19T03:09:42.532Z,13.1
2017-06-19T03:10:50.018Z,13.1
2017-06-19T03:11:57.507Z,13.1
2017-06-19T03:13:04.998Z,13.1
2017-06-19T03:14:12.490Z,13.2
2017-06-19T03:15:20.278Z,13.1
2017-06-19T03:16:27.763Z,13.2
2017-06-19T03:17:35.264Z,13.2
2017-06-19T03:18:42.753Z,13.2
2017-06-19T03:19:50.244Z,13.2
2017-06-19T03:20:58.030Z,13.2
2017-06-19T03:22:05.181Z,13.2
2017-06-19T03:23:12.665Z,13.1
2017-06-19T03:24:20.147Z,13.1
2017-06-19T03:25:27.634Z,13.1
2017-06-19T03:26:35.473Z,13.1
2017-06-19T03:27:42.953Z,13.1
2017-06-19T03:28:50.440Z,13.1
2017-06-19T03:29:57.920Z,13.1
2017-06-19T03:31:05.401Z,13.1
2017-06-19T03:32:13.185Z,13.1
2017-06-19T03:33:20.665Z,13.1
2017-06-19T03:34:28.158Z,13.1
2017-06-19T03:35:35.643Z,13.1
2017-06-19T03:36:43.124Z,13.1
2017-06-19T03:37:50.911Z,13.1
2017-06-19T03:38:58.409Z,13.1
2017-06-19T03:40:05.895Z,13.1
2017-06-19T03:41:13.377Z,13.1
2017-06-19T03:42:20.859Z,13.1
2017-06-19T03:43:28.699Z,13.1
2017-06-19T03:44:35.858Z,13.2
2017-06-19T03:45:43.342Z,13.2
2017-06-19T03:46:50.823Z,13.1
2017-06-19T03:47:58.549Z,13.2
2017-06-19T03:49:06.375Z,13.2
2017-06-19T03:50:13.866Z,13.1
2017-06-19T03:51:21.377Z,13.2
2017-06-19T03:52:28.865Z,13.2
2017-06-19T03:53:36.353Z,13.2
2017-06-19T03:54:43.838Z,13.3
2017-06-19T03:55:51.323Z,13.3
2017-06-19T03:56:58.813Z,13.3
2017-06-19T03:58:06.302Z,13.3
2017-06-19T03:59:14.090Z,13.3
2017-06-19T04:00:21.574Z,13.4
2017-06-19T04:01:28.733Z,13.4
2017-06-19T04:02:36.220Z,13.4
2017-06-19T04:03:43.704Z,13.4
2017-06-19T04:04:51.491Z,13.4
2017-06-19T04:05:58.651Z,13.4
2017-06-19T04:07:06.135Z,13.4
2017-06-19T04:08:13.621Z,13.4
2017-06-19T04:09:21.104Z,13.4
2017-06-19T04:10:28.895Z,13.4
2017-06-19T04:11:36.383Z,13.4
2017-06-19T04:12:43.870Z,13.4
2017-06-19T04:13:51.356Z,13.4
2017-06-19T04:14:58.839Z,13.4
2017-06-19T04:16:06.324Z,13.4
2017-06-19T04:17:13.810Z,13.4
2017-06-19T04:18:21.285Z,13.4
2017-06-19T04:19:28.774Z,13.4
2017-06-19T04:20:36.567Z,13.4
2017-06-19T04:21:44.054Z,13.5
2017-06-19T04:22:51.537Z,13.5
2017-06-19T04:23:59.021Z,13.5
2017-06-19T04:25:06.506Z,13.5
2017-06-19T04:26:13.972Z,13.6
2017-06-19T04:27:21.467Z,13.6
2017-06-19T04:28:28.950Z,13.6
2017-06-19T04:29:36.436Z,13.6
2017-06-19T04:30:43.926Z,13.6
2017-06-19T04:31:51.729Z,13.6
2017-06-19T04:32:59.223Z,13.6
2017-06-19T04:34:06.707Z,13.7
2017-06-19T04:35:13.871Z,13.8
2017-06-19T04:36:21.356Z,13.8
2017-06-19T04:37:28.810Z,13.8
2017-06-19T04:38:35.968Z,13.9
2017-06-19T04:39:43.445Z,13.9
2017-06-19T04:40:50.943Z,13.9
2017-06-19T04:41:58.093Z,14
2017-06-19T04:43:05.805Z,14
2017-06-19T04:44:13.290Z,14.1
2017-06-19T04:45:20.802Z,14.1
2017-06-19T04:46:28.287Z,14.1
2017-06-19T04:47:36.065Z,14.2
2017-06-19T04:48:43.549Z,14.2
2017-06-19T04:49:51.035Z,14.3
2017-06-19T04:50:58.522Z,14.3
2017-06-19T04:52:06.005Z,14.4
2017-06-19T04:53:13.795Z,14.4
2017-06-19T04:54:21.531Z,14.5
2017-06-19T04:55:29.030Z,14.5
2017-06-19T04:56:36.505Z,14.5
2017-06-19T04:57:43.990Z,14.6
2017-06-19T04:58:51.779Z,14.6
2017-06-19T04:59:59.263Z,14.6
2017-06-19T05:01:21.338Z,14.7
2017-06-19T05:02:28.841Z,14.7
2017-06-19T05:03:36.326Z,14.8
2017-06-19T05:04:44.109Z,14.8
2017-06-19T05:05:51.596Z,14.9
2017-06-19T05:06:59.081Z,14.9
2017-06-19T05:08:06.563Z,15
2017-06-19T05:09:14.050Z,15
2017-06-19T05:10:21.883Z,15.1
2017-06-19T05:11:29.367Z,15.1
2017-06-19T05:12:36.849Z,15.1
2017-06-19T05:13:44.329Z,15.2
2017-06-19T05:14:51.813Z,15.3
2017-06-19T05:15:59.650Z,15.4
2017-06-19T05:17:07.138Z,15.4
2017-06-19T05:18:14.301Z,15.5
2017-06-19T05:19:21.784Z,15.6
2017-06-19T05:20:29.285Z,15.7
2017-06-19T05:21:36.773Z,15.9
2017-06-19T05:22:43.931Z,16
2017-06-19T05:23:51.417Z,16
2017-06-19T05:24:58.903Z,16.2
2017-06-19T05:26:06.388Z,16.3
2017-06-19T05:27:14.218Z,16.4
2017-06-19T05:28:21.705Z,16.5
2017-06-19T05:29:29.209Z,16.6
2017-06-19T05:30:36.686Z,16.7
2017-06-19T05:31:44.173Z,16.9
2017-06-19T05:32:52.005Z,17
2017-06-19T05:33:59.490Z,17.1
2017-06-19T05:35:06.969Z,17.3
2017-06-19T05:36:14.126Z,17.4
2017-06-19T05:37:21.616Z,17.6
2017-06-19T05:38:29.407Z,17.8
2017-06-19T05:39:36.229Z,17.9
2017-06-19T05:40:43.712Z,17.9
2017-06-19T05:41:51.199Z,18.1
2017-06-19T05:42:58.925Z,18.3
2017-06-19T05:44:06.767Z,18.5
2017-06-19T05:45:14.248Z,18.7
2017-06-19T05:46:21.736Z,18.8
2017-06-19T05:47:29.219Z,18.9
2017-06-19T05:48:36.733Z,19
2017-06-19T05:49:44.566Z,19.1
2017-06-19T05:50:52.050Z,19.4
2017-06-19T05:51:59.533Z,19.7
2017-06-19T05:53:07.028Z,19.8
2017-06-19T05:54:14.519Z,19.9
2017-06-19T05:55:22.303Z,20.1
2017-06-19T05:56:29.787Z,20.2
2017-06-19T05:57:37.298Z,20.3
2017-06-19T05:58:44.783Z,20.5
2017-06-19T05:59:52.270Z,20.7
2017-06-19T06:00:59.774Z,20.7
2017-06-19T06:02:07.262Z,20.7
2017-06-19T06:03:14.751Z,20.7
2017-06-19T06:04:21.837Z,20.8
2017-06-19T06:05:29.341Z,20.8
2017-06-19T06:06:37.176Z,20.7
2017-06-19T06:07:44.664Z,20.9
2017-06-19T06:08:51.499Z,21.1
2017-06-19T06:09:58.983Z,21.3
2017-06-19T06:11:06.471Z,21.5
2017-06-19T06:12:14.261Z,21.6
2017-06-19T06:13:21.754Z,21.7
2017-06-19T06:14:29.252Z,21.5
2017-06-19T06:15:36.740Z,21.1
2017-06-19T06:16:43.890Z,21
2017-06-19T06:17:51.678Z,21.1
2017-06-19T06:18:59.034Z,21.3
2017-06-19T06:20:06.522Z,21.5
2017-06-19T06:21:14.013Z,21.3
2017-06-19T06:22:21.172Z,21.4
2017-06-19T06:23:29.011Z,21.3
2017-06-19T06:24:36.172Z,21.6
2017-06-19T06:25:43.658Z,21.8
2017-06-19T06:26:51.146Z,22.1
2017-06-19T06:27:58.626Z,22.1
2017-06-19T06:29:06.088Z,22.3
2017-06-19T06:30:13.582Z,22.3
2017-06-19T06:31:21.065Z,22.2
2017-06-19T06:32:28.553Z,22.2
2017-06-19T06:33:36.064Z,22.1
2017-06-19T06:34:43.901Z,22.3
2017-06-19T06:35:51.387Z,22.6
2017-06-19T06:36:58.875Z,22.8
2017-06-19T06:38:06.363Z,23.1
2017-06-19T06:39:13.852Z,23.5
2017-06-19T06:40:21.650Z,23.8
2017-06-19T06:41:29.137Z,24
2017-06-19T06:42:36.294Z,24
2017-06-19T06:43:43.786Z,24.2
2017-06-19T06:44:51.281Z,23.8
2017-06-19T06:45:59.074Z,24
2017-06-19T06:47:06.231Z,24.3
2017-06-19T06:48:13.717Z,24.5
2017-06-19T06:49:20.878Z,24.5
2017-06-19T06:50:28.042Z,24.7
2017-06-19T06:51:35.889Z,24.6
2017-06-19T06:52:43.045Z,24.5
2017-06-19T06:53:50.543Z,24.3
2017-06-19T06:54:58.037Z,24
2017-06-19T06:56:05.517Z,24
2017-06-19T06:57:13.351Z,23.9
2017-06-19T06:58:20.846Z,23.7
2017-06-19T06:59:28.009Z,23.9
2017-06-19T07:00:35.514Z,24
2017-06-19T07:01:42.704Z,24.3
2017-06-19T07:02:50.547Z,24.7
2017-06-19T07:03:58.035Z,25.3
2017-06-19T07:05:05.535Z,25.5
2017-06-19T07:06:12.702Z,25.8
2017-06-19T07:07:20.191Z,25.9
2017-06-19T07:08:27.660Z,26
2017-06-19T07:09:34.495Z,26
2017-06-19T07:10:41.988Z,26.2
2017-06-19T07:11:49.494Z,26
2017-06-19T07:12:56.986Z,26.2
2017-06-19T07:14:04.782Z,26.4
2017-06-19T07:15:12.275Z,26.5
2017-06-19T07:16:19.120Z,26.1
2017-06-19T07:17:26.284Z,26
2017-06-19T07:18:33.778Z,26.3
2017-06-19T07:19:41.572Z,26.3
2017-06-19T07:20:49.082Z,26.2
2017-06-19T07:21:56.575Z,26.3
2017-06-19T07:23:04.077Z,26.4
2017-06-19T07:24:11.570Z,26.4
2017-06-19T07:25:19.364Z,26.4
2017-06-19T07:26:26.852Z,26.3
2017-06-19T07:27:34.345Z,26.2
2017-06-19T07:28:41.842Z,26.2
2017-06-19T07:29:49.341Z,26.2
2017-06-19T07:30:57.211Z,26.4
2017-06-19T07:32:04.704Z,26.6
2017-06-19T07:33:11.873Z,26.6
2017-06-19T07:34:19.372Z,26.5
2017-06-19T07:35:26.871Z,26.5
2017-06-19T07:36:34.711Z,26
2017-06-19T07:37:42.203Z,25.8
2017-06-19T07:38:49.694Z,26.1
2017-06-19T07:39:56.864Z,26.6
2017-06-19T07:41:04.360Z,27.1
2017-06-19T07:42:12.218Z,27.4
2017-06-19T07:43:19.713Z,27.5
2017-06-19T07:44:27.212Z,27.9
2017-06-19T07:45:34.706Z,28
2017-06-19T07:46:42.202Z,28
2017-06-19T07:47:49.396Z,27.7
2017-06-19T07:48:56.891Z,26.9
2017-06-19T07:50:04.387Z,26.6
2017-06-19T07:51:11.880Z,26.9
2017-06-19T07:52:19.387Z,27.3
2017-06-19T07:53:27.662Z,27.4
2017-06-19T07:54:35.155Z,27.7
2017-06-19T07:55:42.646Z,27.8
2017-06-19T07:56:50.142Z,27.7
2017-06-19T07:57:57.635Z,27.7
2017-06-19T07:59:05.479Z,27.9
2017-06-19T08:00:12.977Z,28.1
2017-06-19T08:01:20.477Z,28
2017-06-19T08:02:27.644Z,28.1
2017-06-19T08:03:35.133Z,28.1
2017-06-19T08:04:42.930Z,28.1
2017-06-19T08:05:50.422Z,27.6
2017-06-19T08:06:57.921Z,27.5
2017-06-19T08:08:05.419Z,27.7
2017-06-19T08:09:12.912Z,28
2017-06-19T08:10:20.097Z,28.3
2017-06-19T08:11:27.583Z,28.6
2017-06-19T08:12:35.075Z,28.6
2017-06-19T08:13:42.570Z,28.4
2017-06-19T08:14:50.370Z,28.5
2017-06-19T08:15:57.531Z,28.7
2017-06-19T08:17:05.023Z,29.2
2017-06-19T08:18:12.523Z,29.5
2017-06-19T08:19:20.019Z,29.4
2017-06-19T08:20:27.820Z,29.3
2017-06-19T08:21:35.322Z,29.3
2017-06-19T08:22:42.821Z,29.5
2017-06-19T08:23:50.315Z,29.9
2017-06-19T08:24:57.815Z,30.3
2017-06-19T08:26:05.606Z,30.1
2017-06-19T08:27:13.107Z,29.9
2017-06-19T08:28:20.275Z,29.7
2017-06-19T08:29:27.768Z,29.8
2017-06-19T08:30:35.269Z,30
2017-06-19T08:31:43.125Z,30.1
2017-06-19T08:32:50.625Z,29.8
2017-06-19T08:33:58.117Z,29.7
2017-06-19T08:35:05.625Z,29.8
2017-06-19T08:36:13.121Z,29.6
2017-06-19T08:37:20.621Z,29.7
2017-06-19T08:38:28.152Z,30
2017-06-19T08:39:35.622Z,30.1
2017-06-19T08:40:42.792Z,30.3
2017-06-19T08:41:50.290Z,30.8
2017-06-19T08:42:57.795Z,31
2017-06-19T08:44:05.288Z,31
2017-06-19T08:45:12.756Z,31
2017-06-19T08:46:20.256Z,31
2017-06-19T08:47:27.757Z,31.1
2017-06-19T08:48:35.249Z,30.9
2017-06-19T08:49:42.619Z,30.9
2017-06-19T08:50:50.417Z,31.2
2017-06-19T08:51:57.592Z,31.2
2017-06-19T08:53:05.089Z,31.2
2017-06-19T08:54:12.590Z,30.8
2017-06-19T08:55:20.106Z,30.4
2017-06-19T08:56:27.892Z,30.2
2017-06-19T08:57:35.386Z,30.3
2017-06-19T08:58:42.557Z,30.1
2017-06-19T08:59:50.071Z,30.1
2017-06-19T09:00:57.568Z,29.9
2017-06-19T09:02:05.065Z,29.7
2017-06-19T09:03:12.566Z,29.1
2017-06-19T09:04:20.077Z,29.3
2017-06-19T09:05:27.566Z,29.5
2017-06-19T09:06:35.364Z,29.7
2017-06-19T09:07:42.862Z,30.2
2017-06-19T09:08:50.369Z,30.4
2017-06-19T09:09:57.870Z,29.9
2017-06-19T09:11:04.706Z,30.1
2017-06-19T09:12:12.507Z,30
2017-06-19T09:13:20.023Z,30
2017-06-19T09:14:27.190Z,30.1
2017-06-19T09:15:34.366Z,30.2
2017-06-19T09:16:41.862Z,30.5
2017-06-19T09:17:49.675Z,30.7
2017-06-19T09:18:57.171Z,30.7
2017-06-19T09:20:04.340Z,30.7
2017-06-19T09:21:11.524Z,30.8
2017-06-19T09:22:18.355Z,30.6
2017-06-19T09:23:26.157Z,30.3
2017-06-19T09:24:33.322Z,30.5
2017-06-19T09:25:40.496Z,30.9
2017-06-19T09:26:47.991Z,31.3
2017-06-19T09:27:55.166Z,31.3
2017-06-19T09:29:02.326Z,31.5
2017-06-19T09:30:09.819Z,31.3
2017-06-19T09:31:17.316Z,30.8
2017-06-19T09:32:24.482Z,30.7
2017-06-19T09:33:31.651Z,31.1
2017-06-19T09:34:39.442Z,31.8
2017-06-19T09:35:46.944Z,32
2017-06-19T09:36:54.441Z,32
2017-06-19T09:38:01.934Z,31.9
2017-06-19T09:39:09.432Z,31.8
2017-06-19T09:40:16.902Z,31.3
2017-06-19T09:41:24.398Z,31.1
2017-06-19T09:42:31.894Z,31.1
2017-06-19T09:43:39.383Z,31.2
2017-06-19T09:44:46.885Z,31.3
2017-06-19T09:45:54.685Z,31.7
2017-06-19T09:47:02.182Z,31.9
2017-06-19T09:48:09.679Z,32
2017-06-19T09:49:17.173Z,32.1
2017-06-19T09:50:24.677Z,31.8
2017-06-19T09:51:32.154Z,31.8
2017-06-19T09:52:39.656Z,32
2017-06-19T09:53:47.149Z,31.8
2017-06-19T09:54:54.651Z,31.3
2017-06-19T09:56:02.153Z,30.7
2017-06-19T09:57:09.951Z,30.8
2017-06-19T09:58:17.449Z,31.1
2017-06-19T09:59:24.955Z,31.4
2017-06-19T10:00:32.454Z,31.6
2017-06-19T10:01:39.947Z,31.3
2017-06-19T10:02:47.744Z,30.4
2017-06-19T10:03:54.592Z,30.2
2017-06-19T10:05:02.100Z,30.2
2017-06-19T10:06:09.271Z,29.9
2017-06-19T10:07:16.770Z,30.1
2017-06-19T10:08:23.936Z,30.1
2017-06-19T10:09:31.435Z,30.2
2017-06-19T10:10:38.937Z,30.6
2017-06-19T10:11:46.443Z,30.8
2017-06-19T10:12:53.606Z,31
2017-06-19T10:14:01.401Z,30.7
2017-06-19T10:15:08.894Z,30.9
2017-06-19T10:16:16.068Z,31.1
2017-06-19T10:17:23.577Z,31.4
2017-06-19T10:18:31.079Z,31.8
2017-06-19T10:19:38.882Z,31.8
2017-06-19T10:20:46.372Z,31.1
2017-06-19T10:21:53.874Z,31.3
2017-06-19T10:23:01.382Z,31.3
2017-06-19T10:24:08.559Z,31.1
2017-06-19T10:25:16.363Z,30.9
2017-06-19T10:26:23.534Z,30.8
2017-06-19T10:27:30.711Z,31.1
2017-06-19T10:28:37.911Z,31.5
2017-06-19T10:29:45.411Z,32
2017-06-19T10:30:52.925Z,32.1
2017-06-19T10:32:00.425Z,32.4
2017-06-19T10:33:07.922Z,32.5
2017-06-19T10:34:15.436Z,32.4
2017-06-19T10:35:22.912Z,32
2017-06-19T10:36:30.414Z,31.8
2017-06-19T10:37:37.912Z,31.5
2017-06-19T10:38:45.406Z,31.8
2017-06-19T10:39:52.908Z,31.9
2017-06-19T10:41:00.709Z,31.9
2017-06-19T10:42:08.211Z,32.1
2017-06-19T10:43:15.912Z,31.7
2017-06-19T10:44:23.406Z,31.8
2017-06-19T10:45:30.908Z,31.9
2017-06-19T10:46:38.710Z,31.6
2017-06-19T10:47:46.264Z,31.6
2017-06-19T10:48:53.442Z,31.6
2017-06-19T10:50:00.940Z,31.7
2017-06-19T10:51:08.446Z,32.1
2017-06-19T10:52:15.916Z,32
2017-06-19T10:53:23.417Z,32.5
2017-06-19T10:54:30.911Z,32.6
2017-06-19T10:55:38.429Z,33
2017-06-19T10:56:45.611Z,33.4
2017-06-19T10:57:52.788Z,33.6
2017-06-19T10:59:00.296Z,33.9
2017-06-19T11:00:07.801Z,34.1
2017-06-19T11:01:15.294Z,33.5
2017-06-19T11:02:23.093Z,33.4
2017-06-19T11:03:30.281Z,33.5
2017-06-19T11:04:37.777Z,33.3
2017-06-19T11:05:45.278Z,32.4
2017-06-19T11:06:52.777Z,32.1
2017-06-19T11:08:00.578Z,32.1
2017-06-19T11:09:07.756Z,32.3
2017-06-19T11:10:15.490Z,32.5
2017-06-19T11:11:22.664Z,32.7
2017-06-19T11:12:29.835Z,32.5
2017-06-19T11:13:37.642Z,32.3
2017-06-19T11:14:45.143Z,32.5
2017-06-19T11:15:52.672Z,32.7
2017-06-19T11:17:00.196Z,33
2017-06-19T11:18:07.699Z,33.2
2017-06-19T11:19:15.177Z,33.5
2017-06-19T11:20:22.673Z,33.1
2017-06-19T11:21:30.172Z,32.8
2017-06-19T11:22:37.668Z,32.4
2017-06-19T11:23:45.169Z,32.6
2017-06-19T11:24:52.676Z,32.7
2017-06-19T11:25:59.874Z,32.7
2017-06-19T11:27:07.383Z,33.1
2017-06-19T11:28:15.113Z,33.3
2017-06-19T11:29:22.273Z,33
2017-06-19T11:30:30.078Z,32.4
2017-06-19T11:31:37.580Z,32.2
2017-06-19T11:32:45.088Z,32.3
2017-06-19T11:33:52.587Z,32.6
2017-06-19T11:34:59.756Z,32.7
2017-06-19T11:36:07.563Z,32.8
2017-06-19T11:37:15.070Z,33.2
2017-06-19T11:38:22.574Z,33.6
2017-06-19T11:39:30.074Z,33.9
2017-06-19T11:40:37.574Z,34.1
2017-06-19T11:41:45.049Z,34.1
2017-06-19T11:42:52.550Z,33.7
2017-06-19T11:44:00.050Z,33.5
2017-06-19T11:45:07.553Z,33.8
2017-06-19T11:46:14.716Z,34.2
2017-06-19T11:47:22.198Z,34.5
2017-06-19T11:48:29.704Z,34.6
2017-06-19T11:49:37.209Z,34.3
2017-06-19T11:50:44.702Z,34.6
2017-06-19T11:51:52.204Z,34.4
2017-06-19T11:53:00.012Z,34
2017-06-19T11:54:07.516Z,34.2
2017-06-19T11:55:15.026Z,34.5
2017-06-19T11:56:22.537Z,34.8
2017-06-19T11:57:30.052Z,34.7
2017-06-19T11:58:37.858Z,34.2
2017-06-19T11:59:45.358Z,33.4
2017-06-19T12:00:52.866Z,33.2
2017-06-19T12:02:00.059Z,33.5
2017-06-19T12:03:07.238Z,33.6
2017-06-19T12:04:14.747Z,33.7
2017-06-19T12:05:22.251Z,33.7
2017-06-19T12:06:29.749Z,33.7
2017-06-19T12:07:37.263Z,33.5
2017-06-19T12:08:44.779Z,32.8
2017-06-19T12:09:52.260Z,33.3
2017-06-19T12:10:59.765Z,34.2
2017-06-19T12:12:07.266Z,34.3
2017-06-19T12:13:14.773Z,34
2017-06-19T12:14:22.276Z,33.9
2017-06-19T12:15:29.748Z,34.1
2017-06-19T12:16:37.251Z,34
2017-06-19T12:17:44.751Z,34
2017-06-19T12:18:51.928Z,34.3
2017-06-19T12:19:59.435Z,34.8
2017-06-19T12:21:07.243Z,35
2017-06-19T12:22:14.742Z,34.2
2017-06-19T12:23:22.253Z,33.6
2017-06-19T12:24:29.781Z,33.2
2017-06-19T12:25:37.284Z,33.1
2017-06-19T12:26:45.096Z,33
2017-06-19T12:27:52.598Z,33.5
2017-06-19T12:29:00.097Z,33.8
2017-06-19T12:30:07.595Z,33.9
2017-06-19T12:31:14.761Z,33.9
2017-06-19T12:32:22.572Z,33.7
2017-06-19T12:33:29.744Z,33.8
2017-06-19T12:34:37.242Z,33.5
2017-06-19T12:35:44.416Z,32.8
2017-06-19T12:36:51.588Z,32.3
2017-06-19T12:37:59.389Z,31.9
2017-06-19T12:39:06.571Z,32.3
2017-06-19T12:40:14.075Z,32.7
2017-06-19T12:41:21.574Z,33.1
2017-06-19T12:42:29.082Z,33.6
2017-06-19T12:43:36.265Z,34.1
2017-06-19T12:44:43.768Z,34.5
2017-06-19T12:45:51.273Z,35
2017-06-19T12:46:58.775Z,35.1
2017-06-19T12:48:05.956Z,35.2
2017-06-19T12:49:13.755Z,35
2017-06-19T12:50:20.925Z,35.1
2017-06-19T12:51:28.436Z,35.1
2017-06-19T12:52:35.940Z,35.6
2017-06-19T12:53:43.443Z,36.2
2017-06-19T12:54:51.274Z,36.6
2017-06-19T12:55:58.775Z,36.3
2017-06-19T12:57:06.275Z,35.6
2017-06-19T12:58:13.777Z,35.2
2017-06-19T12:59:20.951Z,34.9
2017-06-19T13:00:28.757Z,34.5
2017-06-19T13:01:35.609Z,34.3
2017-06-19T13:02:43.120Z,34.7
2017-06-19T13:03:50.620Z,34.8
2017-06-19T13:04:58.126Z,35.1
2017-06-19T13:06:05.975Z,35
2017-06-19T13:07:13.481Z,35
2017-06-19T13:08:20.654Z,34.9
2017-06-19T13:09:27.830Z,34.3
2017-06-19T13:10:35.340Z,34.2
2017-06-19T13:11:42.499Z,34.6
2017-06-19T13:12:49.339Z,35
2017-06-19T13:13:56.853Z,35.5
2017-06-19T13:15:04.367Z,35.8
2017-06-19T13:16:11.548Z,35.9
2017-06-19T13:17:19.352Z,35.3
2017-06-19T13:18:26.874Z,35.5
2017-06-19T13:19:34.046Z,35.6
2017-06-19T13:20:41.548Z,35.7
2017-06-19T13:21:49.059Z,35.1
2017-06-19T13:22:56.559Z,34.6
2017-06-19T13:24:04.066Z,34.8
2017-06-19T13:25:11.571Z,34.2
2017-06-19T13:26:19.077Z,34.1
2017-06-19T13:27:26.251Z,34.6
2017-06-19T13:28:34.057Z,35
2017-06-19T13:29:41.238Z,35.5
2017-06-19T13:30:48.750Z,36
2017-06-19T13:31:55.918Z,36.1
2017-06-19T13:33:03.433Z,35.8
2017-06-19T13:34:11.243Z,35.9
2017-06-19T13:35:18.427Z,35.4
2017-06-19T13:36:25.934Z,35.3
2017-06-19T13:37:33.117Z,35.4
2017-06-19T13:38:40.616Z,35.4
2017-06-19T13:39:48.088Z,35.5
2017-06-19T13:40:55.595Z,35.6
2017-06-19T13:42:03.093Z,35.6
2017-06-19T13:43:10.849Z,35.6
2017-06-19T13:44:18.347Z,35.4
2017-06-19T13:45:25.847Z,35.5
2017-06-19T13:46:33.036Z,36
2017-06-19T13:47:40.558Z,36.2
2017-06-19T13:48:48.056Z,36.8
2017-06-19T13:49:55.240Z,37.1
2017-06-19T13:51:03.043Z,37.4
2017-06-19T13:52:10.220Z,37
2017-06-19T13:53:17.392Z,36.4
2017-06-19T13:54:24.894Z,36.4
2017-06-19T13:55:32.401Z,36.6
2017-06-19T13:56:39.883Z,36.8
2017-06-19T13:57:46.733Z,37.2
2017-06-19T13:58:54.243Z,37.1
2017-06-19T14:00:01.757Z,36.4
2017-06-19T14:01:09.267Z,35.9
2017-06-19T14:02:16.770Z,35.8
2017-06-19T14:03:24.275Z,35.9
2017-06-19T14:04:31.774Z,36
2017-06-19T14:05:39.279Z,36.3
2017-06-19T14:06:46.462Z,36.4
2017-06-19T14:07:54.269Z,35.7
2017-06-19T14:09:01.775Z,34.8
2017-06-19T14:10:09.286Z,33.8
2017-06-19T14:12:23.607Z,34.2
2017-06-19T14:13:31.462Z,34.9
2017-06-19T14:14:38.976Z,35.5
2017-06-19T14:15:46.479Z,36
2017-06-19T14:16:53.655Z,36.2
2017-06-19T14:18:01.168Z,36.4
2017-06-19T14:19:08.350Z,36.7
2017-06-19T14:20:15.822Z,36.7
2017-06-19T14:21:23.340Z,36.4
2017-06-19T14:22:30.847Z,36.2
2017-06-19T14:23:38.355Z,35.8
2017-06-19T14:24:45.868Z,35.6
2017-06-19T14:25:53.672Z,34.9
2017-06-19T14:27:01.182Z,35
2017-06-19T14:28:08.692Z,35.3
2017-06-19T14:29:15.861Z,35.6
2017-06-19T14:30:23.365Z,35.8
2017-06-19T14:31:31.168Z,35.6
2017-06-19T14:32:38.674Z,35.5
2017-06-19T14:33:46.224Z,35.6
2017-06-19T14:34:53.725Z,35.6
2017-06-19T14:36:01.228Z,35.5
2017-06-19T14:37:08.727Z,35.6
2017-06-19T14:38:15.904Z,35.5
2017-06-19T14:39:23.423Z,35.3
2017-06-19T14:40:30.946Z,34.9
2017-06-19T14:41:38.443Z,35
2017-06-19T14:42:46.246Z,35.5
2017-06-19T14:43:53.758Z,35.6
2017-06-19T14:45:00.932Z,35.6
2017-06-19T14:46:08.433Z,35
2017-06-19T14:47:15.964Z,34.6
2017-06-19T14:48:23.763Z,34.9
2017-06-19T14:49:31.293Z,35.3
2017-06-19T14:50:38.796Z,35.3
2017-06-19T14:51:45.923Z,35.4
2017-06-19T14:52:53.119Z,35.6
2017-06-19T14:54:00.634Z,36.1
2017-06-19T14:55:08.132Z,36.3
2017-06-19T14:56:15.637Z,35.7
2017-06-19T14:57:23.159Z,35.3
2017-06-19T14:58:30.666Z,34.9
2017-06-19T14:59:38.469Z,34.6
2017-06-19T15:00:45.978Z,34.6
2017-06-19T15:01:53.485Z,35
2017-06-19T15:03:00.986Z,35.1
2017-06-19T15:04:08.492Z,35.3
2017-06-19T15:05:16.303Z,35.4